»·PEaware :: N206DS KFLG-KABQ

N206DS :: KFLG-KABQ

FLIGHT INFORMATION

Flight Status: Arrived
Operator: Privately registered:
United States
More flights under this callsign
Pilot: Anonymous 26047 (26047)
Aircraft: BEECH AIRCRAFT BARON
(BE58)
More flights by this aircraft type
Origin: KFLG Flagstaff Pulliam
United States
Destination: KABQ Albuquerque Intl Sunport
United States
More flights between these airports :: More routes between these airports
Route: INW V12 ZUN V12 ABQ
File this flight plan on PilotEdge
Remarks:
Altitude:
(Current/Filed)
9,500ft
Speed:
(Current/Filed)
190kts
Departed: 06-Jan-20 07:08 PM
Arrived: 06-Jan-20 08:38 PM
Distance/Time
Traveled:
248nm/1:30
Distance/Time
To Go:
Arrived

Flight Plot

Page will automatically refresh every two minutes.

Flight plan parsing failed; only flown route is shown


Map Options




Map Legend


Flown Route
Filed Route
Departure Airport
Arrival Airport
Navaid (VOR, NDB)
Fix

Horizontal Profiles

Position Reports

Time Latitude Longitude Heading Altitude Ground
Speed
06-Jan-20 18:43 35.139308 -111.675985 248 7015ft 0kts
06-Jan-20 18:44 35.139308 -111.675985 248 7015ft 0kts
06-Jan-20 18:45 35.139308 -111.675985 248 7015ft 0kts
06-Jan-20 18:46 35.139308 -111.675985 248 7015ft 0kts
06-Jan-20 18:47 35.139308 -111.675985 248 7015ft 0kts
06-Jan-20 18:48 35.139308 -111.675985 248 7015ft 0kts
06-Jan-20 18:49 35.139308 -111.675985 248 7015ft 0kts
06-Jan-20 18:50 35.139308 -111.675985 248 7015ft 0kts
06-Jan-20 18:51 35.139296 -111.676021 247 7015ft 1kts
06-Jan-20 18:52 35.137887 -111.673574 39 7015ft 10kts
06-Jan-20 18:53 35.140956 -111.670330 39 7015ft 16kts
06-Jan-20 18:54 35.143963 -111.667780 119 7015ft 5kts
06-Jan-20 18:55 35.143891 -111.667655 123 7015ft 0kts
06-Jan-20 18:56 35.143890 -111.667654 123 7015ft 0kts
06-Jan-20 18:57 35.143891 -111.667654 123 7015ft 0kts
06-Jan-20 18:58 35.143891 -111.667655 123 7015ft 0kts
06-Jan-20 18:59 35.143891 -111.667655 123 7015ft 0kts
06-Jan-20 19:00 35.143891 -111.667599 54 7015ft 2kts
06-Jan-20 19:01 35.147338 -111.663549 40 7015ft 27kts
06-Jan-20 19:02 35.149808 -111.660381 124 7015ft 0kts
06-Jan-20 19:03 35.149808 -111.660381 124 7015ft 0kts
06-Jan-20 19:04 35.149808 -111.660381 124 7015ft 0kts
06-Jan-20 19:05 35.149808 -111.660381 124 7015ft 0kts
06-Jan-20 19:06 35.149354 -111.659857 173 7015ft 13kts
06-Jan-20 19:07 35.135382 -111.674268 217 7236ft 114kts
06-Jan-20 19:08 35.106202 -111.685898 149 8007ft 143kts
06-Jan-20 19:09 35.070935 -111.655870 172 8328ft 156kts
06-Jan-20 19:10 35.033660 -111.679134 238 8872ft 156kts
06-Jan-20 19:11 35.019436 -111.729044 254 9278ft 160kts
06-Jan-20 19:12 35.001328 -111.779577 208 9390ft 183kts
06-Jan-20 19:13 34.978140 -111.740965 86 9452ft 181kts
06-Jan-20 19:14 34.977631 -111.679109 88 9484ft 182kts
06-Jan-20 19:15 34.981495 -111.617513 79 9516ft 183kts
06-Jan-20 19:16 34.988119 -111.555113 79 9508ft 185kts
06-Jan-20 19:17 34.994497 -111.492043 80 9506ft 185kts
06-Jan-20 19:18 35.000833 -111.428769 80 9505ft 185kts
06-Jan-20 19:19 35.007091 -111.365856 80 9505ft 185kts
06-Jan-20 19:20 35.012971 -111.303318 80 9503ft 185kts
06-Jan-20 19:21 35.019006 -111.240472 81 9500ft 185kts
06-Jan-20 19:22 35.025105 -111.178121 81 9499ft 184kts
06-Jan-20 19:23 35.031006 -111.117150 81 9513ft 183kts
06-Jan-20 19:24 35.036991 -111.055155 81 9514ft 183kts
06-Jan-20 19:25 35.042965 -110.992930 81 9514ft 183kts
06-Jan-20 19:26 35.048857 -110.930769 81 9514ft 184kts
06-Jan-20 19:27 35.054770 -110.868195 81 9514ft 184kts
06-Jan-20 19:28 35.060680 -110.805789 81 9514ft 184kts
06-Jan-20 19:29 35.060959 -110.743098 93 9506ft 185kts
06-Jan-20 19:30 35.056640 -110.680117 92 9506ft 185kts
06-Jan-20 19:31 35.053141 -110.617752 92 9506ft 184kts
06-Jan-20 19:32 35.049852 -110.555131 92 9513ft 184kts
06-Jan-20 19:33 35.046596 -110.492251 91 9514ft 184kts
06-Jan-20 19:34 35.043327 -110.429298 91 9514ft 184kts
06-Jan-20 19:35 35.040040 -110.366500 91 9514ft 184kts
06-Jan-20 19:36 35.036493 -110.303629 92 9513ft 184kts
06-Jan-20 19:37 35.033050 -110.240707 92 9516ft 184kts
06-Jan-20 19:38 35.029650 -110.178107 92 9510ft 184kts
06-Jan-20 19:39 35.026229 -110.115547 92 9512ft 183kts
06-Jan-20 19:40 35.022784 -110.053015 92 9506ft 183kts
06-Jan-20 19:41 35.018806 -109.990796 95 9512ft 183kts
06-Jan-20 19:42 35.012757 -109.928224 95 9513ft 183kts
06-Jan-20 19:43 35.009191 -109.865574 92 9514ft 183kts
06-Jan-20 19:44 35.005598 -109.802908 92 9491ft 184kts
06-Jan-20 19:45 35.001942 -109.740233 92 9485ft 184kts
06-Jan-20 19:46 34.998243 -109.677345 92 9487ft 184kts
06-Jan-20 19:47 34.994529 -109.614635 92 9486ft 184kts
06-Jan-20 19:48 34.990769 -109.551785 92 9486ft 184kts
06-Jan-20 19:49 34.986973 -109.488921 92 9486ft 184kts
06-Jan-20 19:50 34.983138 -109.425973 92 9486ft 184kts
06-Jan-20 19:51 34.979290 -109.363360 92 9486ft 184kts
06-Jan-20 19:52 34.974965 -109.300255 93 9485ft 184kts
06-Jan-20 19:53 34.970425 -109.237630 93 9480ft 185kts
06-Jan-20 19:54 34.965313 -109.174402 92 9490ft 185kts
06-Jan-20 19:55 34.968530 -109.111695 85 9498ft 184kts
06-Jan-20 19:56 34.971302 -109.048688 84 9490ft 184kts
06-Jan-20 19:57 34.974317 -108.985996 84 9506ft 183kts
06-Jan-20 19:58 34.977399 -108.923174 84 9506ft 184kts
06-Jan-20 19:59 34.980464 -108.860567 84 9505ft 184kts
06-Jan-20 20:00 34.983489 -108.798239 84 9505ft 184kts
06-Jan-20 20:02 34.986435 -108.736384 83 9505ft 184kts
06-Jan-20 20:03 34.989424 -108.673551 83 9502ft 183kts
06-Jan-20 20:04 34.992365 -108.611300 83 9505ft 183kts
06-Jan-20 20:05 34.995287 -108.548498 83 9505ft 183kts
06-Jan-20 20:06 34.998150 -108.486244 83 9536ft 182kts
06-Jan-20 20:07 35.000984 -108.423888 83 9535ft 183kts
06-Jan-20 20:08 35.003790 -108.361385 83 9533ft 183kts
06-Jan-20 20:09 35.006251 -108.300825 84 9532ft 183kts
06-Jan-20 20:10 35.008773 -108.241812 81 10058ft 165kts
06-Jan-20 20:11 35.018312 -108.187703 69 10520ft 162kts
06-Jan-20 20:12 35.027434 -108.133316 84 10971ft 168kts
06-Jan-20 20:13 35.027455 -108.075859 83 11338ft 172kts
06-Jan-20 20:14 35.028739 -108.016231 83 11526ft 181kts
06-Jan-20 20:15 35.029880 -107.953529 84 11564ft 187kts
06-Jan-20 20:16 35.030976 -107.889253 84 11555ft 189kts
06-Jan-20 20:17 35.032047 -107.824951 84 11551ft 189kts
06-Jan-20 20:18 35.033098 -107.760150 84 11549ft 189kts
06-Jan-20 20:19 35.034111 -107.695244 84 11551ft 189kts
06-Jan-20 20:19 35.034932 -107.641475 84 11548ft 189kts
06-Jan-20 20:21 35.036037 -107.566332 84 11548ft 189kts
06-Jan-20 20:22 35.036951 -107.501624 84 11549ft 189kts
06-Jan-20 20:22 35.037682 -107.447912 84 11549ft 189kts
06-Jan-20 20:24 35.038665 -107.372788 84 11549ft 189kts
06-Jan-20 20:24 35.039147 -107.318612 85 11511ft 191kts
06-Jan-20 20:25 35.039918 -107.251926 84 11152ft 199kts
06-Jan-20 20:27 35.041820 -107.171542 81 10382ft 210kts
06-Jan-20 20:27 35.040972 -107.112464 87 9458ft 201kts
06-Jan-20 20:29 35.041468 -107.036202 88 8321ft 186kts
06-Jan-20 20:29 35.043080 -106.984118 84 7555ft 183kts
06-Jan-20 20:30 35.043541 -106.925746 84 7503ft 168kts
06-Jan-20 20:32 35.046690 -106.858871 85 7524ft 169kts
06-Jan-20 20:32 35.045135 -106.811380 93 7357ft 163kts
06-Jan-20 20:33 35.042833 -106.758858 87 6747ft 150kts
06-Jan-20 20:34 35.043460 -106.710314 84 6410ft 136kts
06-Jan-20 20:35 35.043847 -106.664304 87 6001ft 130kts
06-Jan-20 20:36 35.044391 -106.625120 87 5495ft 112kts
06-Jan-20 20:37 35.043528 -106.610600 194 5358ft 0kts
06-Jan-20 20:38 35.043411 -106.610625 188 5358ft 4kts
06-Jan-20 20:39 35.042355 -106.613665 224 5358ft 13kts
06-Jan-20 20:40 35.039080 -106.613845 182 5358ft 11kts
06-Jan-20 20:41 35.039534 -106.616401 307 5358ft 11kts
06-Jan-20 20:42 35.039061 -106.618807 180 5358ft 0kts

Navigation Log

Ident Type
Flight plan parsing failed, navigation log unavailable